Time;durP1;ratioP1;P1;durP2;ratioP2;P2;SDS_P1;SDS_P2;PMS_P1;PMS_P2;Temp;Humidity;BMP_temperature;BMP_pressure;BME280_temperature;BME280_humidity;BME280_pressure;Samples;Min_cycle;Max_cycle;Signal;HPM_P1;HPM_P2
2021/06/15 00:00:48;;;;;;;11.90;10.70;;;19.30;99.90;;;;;;5038595;28;20930;-66
2021/06/15 00:03:13;;;;;;;12.63;10.40;;;19.30;99.90;;;;;;5034352;28;20303;-66
2021/06/15 00:05:39;;;;;;;10.73;9.73;;;19.30;99.90;;;;;;5047618;28;20377;-69
2021/06/15 00:08:05;;;;;;;12.40;11.10;;;19.30;99.90;;;;;;5052198;28;20184;-68
2021/06/15 00:10:31;;;;;;;12.33;10.90;;;19.30;99.90;;;;;;5047059;28;20200;-68
2021/06/15 00:12:57;;;;;;;13.00;10.10;;;19.20;99.90;;;;;;5038593;28;20187;-68
2021/06/15 00:15:23;;;;;;;12.70;10.53;;;19.30;99.90;;;;;;5056137;28;20640;-66
2021/06/15 00:17:50;;;;;;;13.50;9.90;;;19.20;99.90;;;;;;5035322;28;20198;-66
2021/06/15 00:20:16;;;;;;;10.90;9.90;;;19.20;99.90;;;;;;5051957;28;21542;-66
2021/06/15 00:22:44;;;;;;;13.00;10.23;;;19.10;99.90;;;;;;5053120;28;20624;-67
2021/06/15 00:25:10;;;;;;;12.10;10.90;;;19.10;99.90;;;;;;5049970;28;20756;-66
2021/06/15 00:27:36;;;;;;;12.37;10.50;;;19.10;99.90;;;;;;5046028;28;20617;-66
2021/06/15 00:30:05;;;;;;;12.20;9.90;;;19.10;99.90;;;;;;5030382;28;21288;-66
2021/06/15 00:32:32;;;;;;;11.10;9.97;;;19.00;99.90;;;;;;5025135;28;20231;-66
2021/06/15 00:34:58;;;;;;;11.37;9.27;;;19.10;99.90;;;;;;5045952;28;20728;-67
2021/06/15 00:37:26;;;;;;;10.33;9.20;;;19.00;99.90;;;;;;5047572;28;21327;-66
2021/06/15 00:39:51;;;;;;;12.47;11.00;;;19.00;99.90;;;;;;5043286;28;20299;-67
2021/06/15 00:42:17;;;;;;;17.27;11.80;;;19.00;99.90;;;;;;5045638;28;20641;-66
2021/06/15 00:44:45;;;;;;;11.17;10.03;;;19.00;99.90;;;;;;5045690;28;20297;-66
2021/06/15 00:47:12;;;;;;;12.17;10.77;;;18.90;99.90;;;;;;5049757;28;20268;-66
2021/06/15 00:49:38;;;;;;;10.77;9.67;;;18.90;99.90;;;;;;5055881;28;20660;-66
2021/06/15 00:52:05;;;;;;;11.83;10.27;;;18.90;99.90;;;;;;5036066;28;20625;-67
2021/06/15 00:54:31;;;;;;;14.57;12.30;;;18.90;99.90;;;;;;5050370;28;20647;-66
2021/06/15 00:56:56;;;;;;;12.07;10.17;;;18.90;99.90;;;;;;5051221;28;20746;-67
2021/06/15 00:59:22;;;;;;;10.93;9.80;;;18.80;99.90;;;;;;5052401;28;20548;-66
2021/06/15 01:01:48;;;;;;;10.97;9.03;;;18.80;99.90;;;;;;5055071;28;20211;-66
2021/06/15 01:04:16;;;;;;;10.60;9.60;;;18.80;99.90;;;;;;5055494;28;20219;-67
2021/06/15 01:07:09;;;;;;;11.30;10.03;;;18.80;99.90;;;;;;5053449;28;20629;-67
2021/06/15 01:10:10;;;;;;;12.57;11.33;;;18.70;99.90;;;;;;5053994;28;20637;-66
2021/06/15 01:13:00;;;;;;;12.03;10.00;;;18.70;99.90;;;;;;5059561;28;20707;-66
2021/06/15 01:15:37;;;;;;;11.33;10.10;;;18.60;99.90;;;;;;5060577;28;21177;-67
2021/06/15 01:18:10;;;;;;;12.13;10.20;;;18.60;99.90;;;;;;5039752;28;20636;-68
2021/06/15 01:20:46;;;;;;;11.73;9.87;;;18.60;99.90;;;;;;5059780;28;20646;-66
2021/06/15 01:23:39;;;;;;;13.30;10.83;;;18.60;99.90;;;;;;5050504;28;20638;-66
2021/06/15 01:26:05;;;;;;;11.90;10.40;;;18.60;99.90;;;;;;5051353;28;20660;-66
2021/06/15 01:28:36;;;;;;;11.40;10.20;;;18.60;99.90;;;;;;5037447;28;20609;-66
2021/06/15 01:31:11;;;;;;;10.70;9.70;;;18.50;99.90;;;;;;5054976;28;20203;-66
2021/06/15 01:33:41;;;;;;;11.77;10.40;;;18.40;99.90;;;;;;5052720;28;20629;-67
2021/06/15 01:36:10;;;;;;;11.87;10.37;;;18.40;99.90;;;;;;5052939;28;20619;-67
2021/06/15 01:38:43;;;;;;;11.27;9.80;;;18.40;99.90;;;;;;5049211;28;20652;-66
2021/06/15 01:41:10;;;;;;;10.93;9.17;;;18.30;99.90;;;;;;5048424;28;20653;-67
2021/06/15 01:43:40;;;;;;;11.10;10.10;;;18.30;99.90;;;;;;5046184;28;21413;-66
2021/06/15 01:46:08;;;;;;;10.87;9.73;;;18.30;99.90;;;;;;5047461;28;20761;-66
2021/06/15 01:48:51;;;;;;;9.93;8.93;;;18.30;99.90;;;;;;5031414;28;20616;-67
2021/06/15 01:51:19;;;;;;;9.23;8.33;;;18.30;99.90;;;;;;5046227;28;20683;-67
2021/06/15 01:54:00;;;;;;;10.90;8.93;;;18.30;99.90;;;;;;5042169;28;20695;-66
2021/06/15 01:56:28;;;;;;;9.70;8.27;;;18.30;99.90;;;;;;5031369;28;20725;-66
2021/06/15 01:58:56;;;;;;;9.83;8.73;;;18.20;99.90;;;;;;5042774;28;20665;-66
2021/06/15 02:01:22;;;;;;;13.17;8.33;;;18.30;99.90;;;;;;5031541;28;20749;-66
2021/06/15 02:03:52;;;;;;;10.90;8.97;;;18.20;99.90;;;;;;5051093;28;20629;-67
2021/06/15 02:06:21;;;;;;;9.13;8.23;;;18.20;99.90;;;;;;5053748;28;20650;-66
2021/06/15 02:08:50;;;;;;;8.13;6.90;;;18.20;99.90;;;;;;5046064;28;20623;-66
2021/06/15 02:11:17;;;;;;;10.50;7.80;;;18.10;99.90;;;;;;5056227;28;20777;-66
2021/06/15 02:13:45;;;;;;;11.47;7.23;;;18.10;99.90;;;;;;5051779;28;20626;-67
2021/06/15 02:16:12;;;;;;;7.70;6.60;;;18.10;99.90;;;;;;5048501;28;20968;-66
2021/06/15 02:18:41;;;;;;;11.30;6.97;;;18.10;99.90;;;;;;5046558;28;20699;-67
2021/06/15 02:21:10;;;;;;;10.97;6.73;;;18.10;99.90;;;;;;5036513;28;20740;-67
2021/06/15 02:23:36;;;;;;;9.80;6.57;;;18.00;99.90;;;;;;5034303;28;20642;-66
2021/06/15 02:26:08;;;;;;;8.80;7.10;;;18.10;99.90;;;;;;5053015;28;20653;-67
2021/06/15 02:28:35;;;;;;;9.10;6.97;;;18.00;99.90;;;;;;5047026;28;20629;-67
2021/06/15 02:31:02;;;;;;;10.57;6.30;;;18.00;99.90;;;;;;5055838;28;20649;-66
2021/06/15 02:33:32;;;;;;;8.17;5.37;;;18.00;99.90;;;;;;5051910;28;20648;-67
2021/06/15 02:36:02;;;;;;;9.07;6.10;;;18.00;99.90;;;;;;5035783;28;20625;-66
2021/06/15 02:38:37;;;;;;;7.23;5.60;;;17.90;99.90;;;;;;5052236;28;20617;-66
2021/06/15 02:41:13;;;;;;;11.03;6.10;;;17.90;99.90;;;;;;5055500;28;20773;-67
2021/06/15 02:43:40;;;;;;;7.60;5.20;;;17.90;99.90;;;;;;5048334;28;20641;-66
2021/06/15 02:46:09;;;;;;;9.53;6.50;;;17.90;99.90;;;;;;5055181;28;20725;-66
2021/06/15 02:48:37;;;;;;;7.90;5.43;;;17.90;99.90;;;;;;5032748;28;20626;-66
2021/06/15 02:51:05;;;;;;;6.40;4.70;;;17.90;99.90;;;;;;5051563;28;20749;-66
2021/06/15 02:54:01;;;;;;;7.47;5.37;;;17.90;99.90;;;;;;5054452;28;20630;-66
2021/06/15 02:56:29;;;;;;;8.73;5.37;;;17.90;99.90;;;;;;5054054;28;20625;-66
2021/06/15 02:58:55;;;;;;;8.93;5.47;;;17.80;99.90;;;;;;5048783;28;21418;-66
2021/06/15 03:01:20;;;;;;;8.93;5.50;;;17.80;99.90;;;;;;5034486;28;20730;-66
2021/06/15 03:03:46;;;;;;;11.70;5.37;;;17.70;99.90;;;;;;5048834;28;20219;-66
2021/06/15 03:06:12;;;;;;;9.13;4.97;;;17.80;99.90;;;;;;5049036;28;20215;-66
2021/06/15 03:08:40;;;;;;;7.63;4.90;;;17.70;99.90;;;;;;5055380;28;20187;-66
2021/06/15 03:11:06;;;;;;;6.23;4.57;;;17.70;99.90;;;;;;5051095;28;20676;-66
2021/06/15 03:13:44;;;;;;;7.60;4.90;;;17.70;99.90;;;;;;5054937;28;20725;-66
2021/06/15 03:16:18;;;;;;;8.60;4.90;;;17.70;99.90;;;;;;5052810;28;20195;-66
2021/06/15 03:18:51;;;;;;;7.67;4.03;;;17.60;99.90;;;;;;5057923;28;20701;-66
2021/06/15 03:21:20;;;;;;;6.47;4.10;;;17.60;99.90;;;;;;5057960;28;20718;-66
2021/06/15 03:23:50;;;;;;;9.30;4.53;;;17.60;99.90;;;;;;5035837;28;20633;-66
2021/06/15 03:26:34;;;;;;;5.87;4.27;;;17.50;99.90;;;;;;5050067;28;20677;-66
2021/06/15 03:29:01;;;;;;;7.03;4.07;;;17.50;99.90;;;;;;5056720;28;20975;-66
2021/06/15 03:31:32;;;;;;;5.73;3.93;;;17.40;99.90;;;;;;5050746;28;20766;-66
2021/06/15 03:33:59;;;;;;;6.80;3.90;;;17.50;99.90;;;;;;5052690;28;20648;-67
2021/06/15 03:36:26;;;;;;;4.67;3.80;;;17.50;99.90;;;;;;5048762;28;20609;-67
2021/06/15 03:38:56;;;;;;;7.27;3.90;;;17.50;99.90;;;;;;5056604;28;20973;-66
2021/06/15 03:41:26;;;;;;;5.20;3.80;;;17.50;99.90;;;;;;5051250;28;20759;-67
2021/06/15 03:43:57;;;;;;;4.43;3.47;;;17.50;99.90;;;;;;5043714;28;20638;-67
2021/06/15 03:46:23;;;;;;;6.97;4.10;;;17.40;99.90;;;;;;5048736;28;20714;-67
2021/06/15 03:48:51;;;;;;;4.47;3.20;;;17.40;99.90;;;;;;5047505;28;20620;-67
2021/06/15 03:51:22;;;;;;;8.13;4.47;;;17.40;99.90;;;;;;5053743;28;21090;-67
2021/06/15 03:53:48;;;;;;;6.30;3.50;;;17.40;99.90;;;;;;5048598;28;20645;-67
2021/06/15 03:56:14;;;;;;;7.90;4.33;;;17.40;99.90;;;;;;5054561;28;20613;-67
2021/06/15 03:58:40;;;;;;;8.97;3.60;;;17.30;99.90;;;;;;5033917;28;20610;-67
2021/06/15 04:01:09;;;;;;;5.07;3.63;;;17.40;99.90;;;;;;5050083;28;20638;-68
2021/06/15 04:03:38;;;;;;;5.03;2.97;;;17.30;99.90;;;;;;5045036;28;20625;-67
2021/06/15 04:06:06;;;;;;;7.60;3.60;;;17.30;99.90;;;;;;5026545;28;20807;-67
2021/06/15 04:08:33;;;;;;;3.43;3.10;;;17.20;99.90;;;;;;5045419;28;20705;-67
2021/06/15 04:11:00;;;;;;;8.67;3.57;;;17.20;99.90;;;;;;5049895;28;20976;-67
2021/06/15 04:13:29;;;;;;;4.70;2.97;;;17.20;99.90;;;;;;5048770;28;20765;-67
2021/06/15 04:15:56;;;;;;;5.53;3.53;;;17.20;99.90;;;;;;5047230;28;20692;-67
2021/06/15 04:18:25;;;;;;;5.17;3.37;;;17.20;99.90;;;;;;5046846;28;20690;-67
2021/06/15 04:20:54;;;;;;;5.20;3.00;;;17.10;99.90;;;;;;5009042;28;21020;-67
2021/06/15 04:23:27;;;;;;;7.60;3.70;;;17.10;99.90;;;;;;5042591;28;20648;-68
2021/06/15 04:25:52;;;;;;;5.27;3.50;;;17.10;99.90;;;;;;5041333;28;20646;-67
2021/06/15 04:28:18;;;;;;;6.87;3.67;;;17.10;99.90;;;;;;5046392;28;21527;-67
2021/06/15 04:30:45;;;;;;;6.03;3.90;;;17.10;99.90;;;;;;5030089;28;20199;-68
2021/06/15 04:33:13;;;;;;;6.60;4.00;;;17.10;99.90;;;;;;5051636;28;20637;-67
2021/06/15 04:35:42;;;;;;;7.77;3.50;;;17.10;99.90;;;;;;5040550;28;20724;-67
2021/06/15 04:38:11;;;;;;;5.60;2.90;;;17.10;99.90;;;;;;5052012;28;20613;-68
2021/06/15 04:40:43;;;;;;;7.47;3.30;;;17.20;99.90;;;;;;5044619;28;21021;-67
2021/06/15 04:43:30;;;;;;;9.10;3.70;;;17.10;99.90;;;;;;5033450;28;21438;-67
2021/06/15 04:46:06;;;;;;;5.57;3.03;;;17.10;99.90;;;;;;5021939;28;20749;-67
2021/06/15 04:48:33;;;;;;;8.37;3.73;;;17.10;99.90;;;;;;5045915;28;20760;-68
2021/06/15 04:51:02;;;;;;;6.47;3.97;;;17.10;99.90;;;;;;5049513;28;21157;-68
2021/06/15 04:53:31;;;;;;;5.53;3.27;;;17.00;99.90;;;;;;5052112;28;20645;-68
2021/06/15 04:56:00;;;;;;;6.10;3.70;;;17.10;99.90;;;;;;5030190;28;20653;-68
2021/06/15 04:58:27;;;;;;;5.43;3.07;;;17.10;99.90;;;;;;5045850;28;20621;-68
2021/06/15 05:00:53;;;;;;;4.40;3.40;;;17.10;99.90;;;;;;5042924;28;20676;-68
2021/06/15 05:03:19;;;;;;;5.77;3.40;;;17.10;99.90;;;;;;5039430;28;20646;-68
2021/06/15 05:05:48;;;;;;;5.17;3.33;;;17.10;99.90;;;;;;5026515;28;20648;-67
2021/06/15 05:08:17;;;;;;;5.77;3.33;;;17.10;99.90;;;;;;5035106;28;21809;-65
2021/06/15 05:10:45;;;;;;;11.90;3.90;;;17.10;99.90;;;;;;5032713;28;20694;-65
2021/06/15 05:13:12;;;;;;;8.50;3.30;;;17.10;99.90;;;;;;5040975;28;20614;-66
2021/06/15 05:15:42;;;;;;;5.00;3.00;;;17.10;99.90;;;;;;5031635;28;21841;-66
2021/06/15 05:18:09;;;;;;;6.63;3.60;;;17.10;99.90;;;;;;5002722;28;20619;-68
2021/06/15 05:20:35;;;;;;;7.83;3.40;;;17.10;99.90;;;;;;5020360;28;20699;-68
2021/06/15 05:23:08;;;;;;;6.20;3.10;;;17.10;99.90;;;;;;5033325;28;21534;-71
2021/06/15 05:25:33;;;;;;;6.47;3.10;;;17.10;99.90;;;;;;5031416;28;20744;-66
2021/06/15 05:27:59;;;;;;;6.00;3.30;;;17.10;99.90;;;;;;5024329;28;20602;-66
2021/06/15 05:30:28;;;;;;;6.73;3.73;;;17.10;99.90;;;;;;5032533;28;20256;-66
2021/06/15 05:32:53;;;;;;;6.13;3.30;;;17.10;99.90;;;;;;5038716;28;21144;-66
2021/06/15 05:35:19;;;;;;;3.90;2.93;;;17.10;99.90;;;;;;5048597;28;20629;-66
2021/06/15 05:37:48;;;;;;;10.00;4.00;;;17.10;99.90;;;;;;5055391;28;20196;-66
2021/06/15 05:40:15;;;;;;;9.90;3.80;;;17.10;99.90;;;;;;5044632;28;20508;-66
2021/06/15 05:42:41;;;;;;;6.73;3.77;;;17.10;99.90;;;;;;5021517;28;20617;-66
2021/06/15 05:45:08;;;;;;;6.00;3.47;;;17.20;99.90;;;;;;5029837;28;20640;-66
2021/06/15 05:47:35;;;;;;;4.67;3.30;;;17.20;99.90;;;;;;5041923;28;20183;-67
2021/06/15 05:50:02;;;;;;;4.80;3.33;;;17.20;99.90;;;;;;5025454;28;20752;-67
2021/06/15 05:52:28;;;;;;;7.13;3.60;;;17.20;99.90;;;;;;5036815;28;20602;-66
2021/06/15 05:54:54;;;;;;;7.63;3.53;;;17.30;99.90;;;;;;5038024;28;20633;-67
2021/06/15 05:57:19;;;;;;;11.77;3.50;;;17.30;99.90;;;;;;5039789;28;20854;-67
2021/06/15 05:59:45;;;;;;;4.17;2.97;;;17.30;99.90;;;;;;5044371;28;20645;-67
2021/06/15 06:02:13;;;;;;;4.27;3.20;;;17.40;99.90;;;;;;5028046;28;20194;-66
2021/06/15 06:10:08;;;;;;;5.53;3.00;;;17.40;99.90;;;;;;5051989;28;20644;-67
2021/06/15 06:12:33;;;;;;;6.10;3.03;;;17.50;99.90;;;;;;5046954;28;20641;-67
2021/06/15 06:15:00;;;;;;;6.70;3.37;;;17.50;99.90;;;;;;5036924;28;20808;-67
2021/06/15 06:17:28;;;;;;;7.80;3.37;;;17.50;99.90;;;;;;5025191;28;20184;-67
2021/06/15 06:19:54;;;;;;;6.20;3.07;;;17.50;99.90;;;;;;5021544;28;20652;-67
2021/06/15 06:22:22;;;;;;;4.63;3.10;;;17.50;99.90;;;;;;5044964;28;20752;-67
2021/06/15 06:24:50;;;;;;;7.30;3.00;;;17.50;99.90;;;;;;5033098;28;20235;-67
2021/06/15 06:27:18;;;;;;;4.07;3.00;;;17.60;99.90;;;;;;5044866;28;21160;-67
2021/06/15 06:29:46;;;;;;;5.87;3.00;;;17.70;99.90;;;;;;5040087;28;20658;-68
2021/06/15 06:32:12;;;;;;;7.27;2.50;;;17.80;99.90;;;;;;5010667;28;20727;-67
2021/06/15 06:34:40;;;;;;;3.57;2.37;;;17.80;99.90;;;;;;5048849;28;20638;-67
2021/06/15 06:37:05;;;;;;;5.70;2.90;;;17.90;99.90;;;;;;5058668;28;20229;-67
2021/06/15 06:39:31;;;;;;;4.90;2.77;;;18.00;99.90;;;;;;5024552;28;20609;-68
2021/06/15 06:41:57;;;;;;;4.47;3.13;;;18.00;99.90;;;;;;5045756;28;20195;-67
2021/06/15 06:44:22;;;;;;;6.20;3.33;;;18.00;99.90;;;;;;5045670;28;20248;-67
2021/06/15 06:46:48;;;;;;;6.50;2.93;;;18.00;99.90;;;;;;5048556;28;20706;-67
2021/06/15 06:49:13;;;;;;;5.20;2.80;;;18.10;99.90;;;;;;5034873;28;20922;-67
2021/06/15 06:51:39;;;;;;;2.93;2.50;;;18.10;99.90;;;;;;5051814;28;20674;-66
2021/06/15 06:54:04;;;;;;;4.60;2.50;;;18.10;99.90;;;;;;5039704;28;20284;-66
2021/06/15 06:56:30;;;;;;;4.77;2.63;;;18.20;99.90;;;;;;5029944;28;20260;-66
2021/06/15 06:58:56;;;;;;;5.03;2.63;;;18.30;99.90;;;;;;5031869;28;20184;-66
2021/06/15 07:01:22;;;;;;;3.50;2.57;;;18.30;99.90;;;;;;5051098;28;20211;-66
2021/06/15 07:03:49;;;;;;;3.10;2.23;;;18.30;99.90;;;;;;5049068;28;20231;-66
2021/06/15 07:06:17;;;;;;;5.13;2.90;;;18.40;99.90;;;;;;5041427;28;20208;-66
2021/06/15 07:08:44;;;;;;;4.97;2.13;;;18.40;99.90;;;;;;5033424;28;21027;-67
2021/06/15 07:11:10;;;;;;;3.07;1.90;;;18.50;99.90;;;;;;5035459;28;20663;-67
2021/06/15 07:13:36;;;;;;;3.37;2.30;;;18.50;99.90;;;;;;5049918;28;20622;-67
2021/06/15 07:16:02;;;;;;;7.47;2.10;;;18.50;99.90;;;;;;5041564;28;20652;-67
2021/06/15 07:18:33;;;;;;;3.60;2.40;;;18.50;99.90;;;;;;5043923;28;20712;-66
2021/06/15 07:20:58;;;;;;;4.90;2.07;;;18.50;99.90;;;;;;5027567;28;21207;-67
2021/06/15 07:23:24;;;;;;;3.40;2.27;;;18.60;99.90;;;;;;5048181;28;20630;-66
2021/06/15 07:25:49;;;;;;;3.60;2.07;;;18.60;99.90;;;;;;5048870;28;20215;-67
2021/06/15 07:28:15;;;;;;;4.77;2.20;;;18.70;99.90;;;;;;5043605;28;20200;-67
2021/06/15 07:30:40;;;;;;;3.13;2.30;;;18.70;99.90;;;;;;5031995;28;20701;-67
2021/06/15 07:33:06;;;;;;;3.00;1.87;;;18.80;99.90;;;;;;5022182;28;20694;-66
2021/06/15 07:35:32;;;;;;;4.30;2.10;;;18.80;99.90;;;;;;5034863;28;20264;-65
2021/06/15 07:37:57;;;;;;;4.33;2.40;;;18.90;99.90;;;;;;5036775;28;22339;-68
2021/06/15 07:40:23;;;;;;;6.13;2.33;;;18.90;99.90;;;;;;5130006;22;20239;-68
2021/06/15 07:42:58;;;;;;;3.97;2.37;;;19.00;99.90;;;;;;5028957;28;20212;-66
2021/06/15 07:45:29;;;;;;;4.57;2.07;;;19.10;99.90;;;;;;5033591;28;20650;-66
2021/06/15 07:47:55;;;;;;;4.57;1.90;;;19.10;99.90;;;;;;5019303;28;20683;-66
2021/06/15 07:50:21;;;;;;;5.00;2.00;;;19.10;99.90;;;;;;5029580;28;20647;-66
2021/06/15 07:52:47;;;;;;;4.33;2.47;;;19.20;99.90;;;;;;4994729;28;20610;-66
2021/06/15 07:55:15;;;;;;;4.00;1.97;;;19.30;99.90;;;;;;4992118;28;20225;-65
2021/06/15 07:57:41;;;;;;;4.20;1.70;;;19.40;99.90;;;;;;5004187;28;20627;-66
2021/06/15 08:00:09;;;;;;;3.70;2.03;;;19.40;99.90;;;;;;4989484;28;20782;-66
2021/06/15 08:02:34;;;;;;;3.57;1.93;;;19.40;99.90;;;;;;5000788;28;20788;-65
2021/06/15 08:05:00;;;;;;;2.60;1.83;;;19.40;99.90;;;;;;5004900;28;20710;-66
2021/06/15 08:07:26;;;;;;;4.47;2.27;;;19.50;99.90;;;;;;4992379;28;20192;-65
2021/06/15 08:09:51;;;;;;;3.63;2.30;;;19.50;99.90;;;;;;5009815;28;20309;-66
2021/06/15 08:12:20;;;;;;;2.70;2.30;;;19.50;99.90;;;;;;5007643;28;21394;-66
2021/06/15 08:14:46;;;;;;;4.00;2.57;;;19.50;99.90;;;;;;5024196;28;20645;-65
2021/06/15 08:17:11;;;;;;;4.63;2.00;;;19.50;99.90;;;;;;5003303;28;21560;-65
2021/06/15 08:19:37;;;;;;;2.40;1.97;;;19.50;99.90;;;;;;5004568;28;20722;-65
2021/06/15 08:22:03;;;;;;;1.73;1.50;;;19.60;99.90;;;;;;5026103;28;20193;-68
2021/06/15 08:24:28;;;;;;;3.33;2.10;;;19.60;99.90;;;;;;5016317;28;21634;-68
2021/06/15 08:26:54;;;;;;;3.23;1.93;;;19.60;99.90;;;;;;5023231;28;20274;-66
2021/06/15 08:29:19;;;;;;;2.13;1.60;;;19.70;99.90;;;;;;5021505;28;20641;-65
2021/06/15 08:31:45;;;;;;;2.23;2.03;;;19.60;99.90;;;;;;5012083;28;20200;-66
2021/06/15 08:34:11;;;;;;;2.47;1.80;;;19.70;99.90;;;;;;4997544;28;20224;-66
2021/06/15 08:36:37;;;;;;;3.23;1.80;;;19.80;99.90;;;;;;5021385;28;20309;-66
2021/06/15 08:39:07;;;;;;;6.67;2.33;;;19.80;99.90;;;;;;5025198;28;20207;-66
2021/06/15 08:41:33;;;;;;;2.37;1.70;;;19.90;99.90;;;;;;5016894;28;20625;-65
2021/06/15 08:43:59;;;;;;;3.70;2.00;;;20.00;99.90;;;;;;5024390;28;20655;-65
2021/06/15 08:46:25;;;;;;;5.27;2.67;;;19.90;99.90;;;;;;5012845;28;21472;-65
2021/06/15 08:48:53;;;;;;;2.93;2.10;;;20.00;99.90;;;;;;5019852;28;20726;-65
2021/06/15 08:51:19;;;;;;;3.37;2.00;;;20.00;99.90;;;;;;5002108;28;20216;-65
2021/06/15 08:53:45;;;;;;;2.20;1.90;;;20.00;99.90;;;;;;5012784;28;20650;-65
2021/06/15 08:56:31;;;;;;;6.10;2.30;;;20.00;99.90;;;;;;5010073;28;20607;-66
2021/06/15 08:59:28;;;;;;;3.53;1.90;;;20.00;99.90;;;;;;5001097;28;20630;-66
2021/06/15 09:01:57;;;;;;;4.23;1.80;;;20.00;99.90;;;;;;5015060;28;21291;-65
2021/06/15 09:04:23;;;;;;;2.90;2.13;;;20.00;99.90;;;;;;5010959;28;20645;-65
2021/06/15 09:06:50;;;;;;;4.43;1.93;;;20.10;99.90;;;;;;4994999;28;20631;-65
2021/06/15 09:09:17;;;;;;;3.97;1.90;;;20.10;99.90;;;;;;5011679;28;20623;-66
2021/06/15 09:11:57;;;;;;;3.93;2.10;;;20.20;99.90;;;;;;5011196;28;20671;-66
2021/06/15 09:14:40;;;;;;;3.90;2.47;;;20.30;99.90;;;;;;5017013;28;21034;-65
2021/06/15 09:17:08;;;;;;;3.40;2.00;;;20.40;99.90;;;;;;5017977;28;20621;-66
2021/06/15 09:19:38;;;;;;;3.50;1.87;;;20.50;99.90;;;;;;5009743;28;20622;-66
2021/06/15 09:22:04;;;;;;;3.30;1.40;;;20.60;99.90;;;;;;4999673;28;20750;-66
2021/06/15 09:24:30;;;;;;;4.43;2.23;;;20.60;99.90;;;;;;5014750;28;20719;-65
2021/06/15 09:26:56;;;;;;;4.90;2.13;;;20.60;99.90;;;;;;5016340;28;20638;-66
2021/06/15 09:29:44;;;;;;;2.80;1.83;;;20.60;99.90;;;;;;5021386;28;20184;-65
2021/06/15 09:32:15;;;;;;;3.43;1.47;;;20.60;99.90;;;;;;5017608;28;20271;-65
2021/06/15 09:34:57;;;;;;;4.40;1.97;;;20.60;99.90;;;;;;5018541;28;20647;-65
2021/06/15 09:37:29;;;;;;;3.90;1.90;;;20.50;99.90;;;;;;5013558;28;20631;-65
2021/06/15 09:39:54;;;;;;;2.60;1.80;;;20.60;99.90;;;;;;5017100;28;21869;-67
2021/06/15 09:42:20;;;;;;;3.57;2.03;;;20.60;99.90;;;;;;5019750;28;20720;-67
2021/06/15 09:44:46;;;;;;;3.27;1.90;;;20.60;99.90;;;;;;5012602;28;20236;-66
2021/06/15 09:47:12;;;;;;;2.60;1.70;;;20.70;99.90;;;;;;5017630;28;20216;-66
2021/06/15 09:49:40;;;;;;;6.27;1.87;;;20.70;99.90;;;;;;5014479;28;20197;-67
2021/06/15 09:52:17;;;;;;;4.60;2.17;;;20.70;99.90;;;;;;5003248;28;20267;-66
2021/06/15 09:54:44;;;;;;;2.20;1.70;;;20.80;99.90;;;;;;5005479;28;20662;-67
2021/06/15 09:57:16;;;;;;;5.10;1.87;;;20.80;99.90;;;;;;5002617;28;20608;-67
2021/06/15 10:00:13;;;;;;;3.03;1.97;;;20.70;99.90;;;;;;5005455;28;20641;-67
2021/06/15 10:03:00;;;;;;;5.40;2.20;;;20.80;99.90;;;;;;4992078;28;24295;-67
2021/06/15 10:05:30;;;;;;;2.63;1.63;;;20.80;99.90;;;;;;5012737;28;20665;-67
2021/06/15 10:08:04;;;;;;;3.90;1.90;;;21.00;99.90;;;;;;5012236;28;23646;-67
2021/06/15 10:10:33;;;;;;;4.90;2.00;;;21.10;99.90;;;;;;5013377;28;20654;-67
2021/06/15 10:12:59;;;;;;;3.23;1.70;;;21.10;99.90;;;;;;4996601;28;20618;-67
2021/06/15 10:15:27;;;;;;;7.27;2.50;;;21.20;99.90;;;;;;5006136;28;20965;-67
2021/06/15 10:17:53;;;;;;;4.43;1.80;;;21.20;99.90;;;;;;4987122;28;20737;-67
2021/06/15 10:20:24;;;;;;;2.90;1.83;;;21.30;99.90;;;;;;4996650;28;20751;-67
2021/06/15 10:22:51;;;;;;;3.33;1.97;;;21.40;99.90;;;;;;5001082;28;20220;-66
2021/06/15 10:25:19;;;;;;;5.80;2.30;;;21.40;99.90;;;;;;4985250;28;20648;-67
2021/06/15 10:27:46;;;;;;;2.10;1.90;;;21.40;99.90;;;;;;4999328;28;21125;-66
2021/06/15 10:30:13;;;;;;;3.30;1.80;;;21.40;99.90;;;;;;5002160;28;20739;-67
2021/06/15 10:32:54;;;;;;;10.00;8.70;;;21.40;99.90;;;;;;4997686;28;20908;-66
2021/06/15 10:35:42;;;;;;;7.03;4.73;;;21.40;99.90;;;;;;5006175;28;20651;-67
2021/06/15 10:38:09;;;;;;;3.20;2.40;;;21.30;99.90;;;;;;4996285;28;20674;-66
2021/06/15 10:40:37;;;;;;;5.77;4.53;;;21.30;99.90;;;;;;4994348;28;20739;-66
2021/06/15 10:43:19;;;;;;;3.23;2.27;;;21.40;99.90;;;;;;5003500;28;20631;-66
2021/06/15 10:45:52;;;;;;;4.77;2.13;;;21.50;99.90;;;;;;5008277;28;20656;-67
2021/06/15 10:48:17;;;;;;;4.07;2.00;;;21.60;99.90;;;;;;4998600;28;20738;-66
2021/06/15 10:50:46;;;;;;;2.83;2.20;;;21.60;99.90;;;;;;5001165;28;20651;-65
2021/06/15 10:53:19;;;;;;;3.03;2.20;;;21.80;99.90;;;;;;5005785;28;20287;-66
2021/06/15 10:55:50;;;;;;;2.90;2.23;;;21.90;99.90;;;;;;5004850;28;20658;-66
2021/06/15 10:58:42;;;;;;;3.37;2.80;;;22.00;99.90;;;;;;4999919;28;20627;-66
2021/06/15 11:01:28;;;;;;;2.53;1.90;;;22.10;99.90;;;;;;4986230;28;20682;-66
2021/06/15 11:03:59;;;;;;;4.80;2.67;;;22.00;99.90;;;;;;5020197;28;20646;-67
2021/06/15 11:06:27;;;;;;;3.97;2.33;;;22.00;99.90;;;;;;5025377;28;21247;-67
2021/06/15 11:09:17;;;;;;;3.37;2.17;;;22.10;99.90;;;;;;5009234;28;20623;-66
2021/06/15 11:11:49;;;;;;;3.70;1.93;;;22.10;99.90;;;;;;5016845;28;21049;-66
2021/06/15 11:14:23;;;;;;;6.20;2.03;;;22.10;99.90;;;;;;5015184;28;20646;-66
2021/06/15 11:16:56;;;;;;;2.67;2.10;;;22.10;99.90;;;;;;5016204;28;21039;-67
2021/06/15 11:19:21;;;;;;;3.33;1.87;;;22.10;99.90;;;;;;5017452;28;20999;-67
2021/06/15 11:21:54;;;;;;;3.30;1.90;;;22.10;99.90;;;;;;5015532;28;20646;-67
2021/06/15 11:24:27;;;;;;;2.60;1.80;;;22.30;99.90;;;;;;4996028;28;20260;-67
2021/06/15 11:26:57;;;;;;;2.40;2.00;;;22.40;99.90;;;;;;5010250;28;20646;-67
2021/06/15 11:29:37;;;;;;;3.27;2.00;;;22.60;99.90;;;;;;5006643;28;20637;-67
2021/06/15 11:32:17;;;;;;;2.30;1.93;;;22.60;99.90;;;;;;5001056;28;20765;-67
2021/06/15 11:35:03;;;;;;;3.33;2.23;;;22.80;99.90;;;;;;5017348;28;20635;-67
2021/06/15 11:37:36;;;;;;;2.03;1.83;;;22.90;99.90;;;;;;5015866;28;20622;-67
2021/06/15 11:40:15;;;;;;;5.57;2.30;;;23.10;99.90;;;;;;5003768;28;20719;-67
2021/06/15 11:42:42;;;;;;;3.20;2.10;;;23.10;99.90;;;;;;5022702;28;20603;-67
2021/06/15 11:45:12;;;;;;;3.90;1.90;;;23.00;99.90;;;;;;5005659;28;21317;-67
2021/06/15 11:47:51;;;;;;;3.27;1.83;;;23.10;99.90;;;;;;5019819;28;20606;-67
2021/06/15 11:50:30;;;;;;;1.80;1.47;;;23.20;99.90;;;;;;5021589;28;20847;-67
2021/06/15 11:53:10;;;;;;;2.70;1.80;;;23.20;99.90;;;;;;5018392;28;21331;-67
2021/06/15 11:55:49;;;;;;;4.90;2.80;;;23.20;99.90;;;;;;5018385;28;21203;-67
2021/06/15 11:58:20;;;;;;;4.77;2.00;;;23.20;99.90;;;;;;5015017;28;20724;-67
2021/06/15 12:00:58;;;;;;;3.13;2.07;;;23.20;99.90;;;;;;5017099;28;20976;-67
2021/06/15 12:03:26;;;;;;;5.40;2.23;;;23.20;99.90;;;;;;4983375;28;20662;-67
2021/06/15 12:05:55;;;;;;;5.40;2.30;;;23.20;99.90;;;;;;4992801;28;20992;-68
2021/06/15 12:08:21;;;;;;;3.83;2.07;;;23.20;99.90;;;;;;5002040;28;20743;-67
2021/06/15 12:10:48;;;;;;;3.93;2.10;;;23.20;99.90;;;;;;5010281;28;20743;-67
2021/06/15 12:13:16;;;;;;;3.20;2.23;;;23.30;99.90;;;;;;4988055;28;20212;-68
2021/06/15 12:16:02;;;;;;;5.00;2.23;;;23.40;99.90;;;;;;5021010;28;20672;-68
2021/06/15 12:18:41;;;;;;;3.13;2.00;;;23.50;99.90;;;;;;5020207;28;20704;-67
2021/06/15 12:21:13;;;;;;;3.10;2.50;;;23.50;99.90;;;;;;5002158;28;20753;-67
2021/06/15 12:23:42;;;;;;;2.73;2.23;;;23.40;99.90;;;;;;5018291;28;21614;-67
2021/06/15 12:26:11;;;;;;;3.57;2.10;;;23.40;99.90;;;;;;4995335;28;20690;-67
2021/06/15 12:28:40;;;;;;;3.33;2.17;;;23.30;99.90;;;;;;5011046;28;21155;-67
2021/06/15 12:31:12;;;;;;;3.50;2.13;;;23.30;99.90;;;;;;5004667;28;21020;-67
2021/06/15 12:33:40;;;;;;;3.17;2.07;;;23.40;99.90;;;;;;4998534;28;21074;-67
2021/06/15 12:36:11;;;;;;;2.93;2.10;;;23.60;99.90;;;;;;5000193;28;20612;-67
2021/06/15 12:38:39;;;;;;;2.20;2.00;;;23.70;99.90;;;;;;5001117;28;20680;-67
2021/06/15 12:41:17;;;;;;;3.20;2.10;;;23.70;99.90;;;;;;4996561;28;20769;-67
2021/06/15 12:43:43;;;;;;;4.23;2.30;;;23.60;99.90;;;;;;5001016;28;20653;-67
2021/06/15 12:46:14;;;;;;;3.50;2.13;;;23.60;99.90;;;;;;5020827;28;20749;-68
2021/06/15 12:48:52;;;;;;;2.60;2.40;;;23.70;99.90;;;;;;5025751;28;20717;-67
2021/06/15 12:51:19;;;;;;;4.30;2.50;;;23.80;99.90;;;;;;5027272;28;20803;-68
2021/06/15 12:53:46;;;;;;;3.27;2.07;;;23.80;99.90;;;;;;5020372;28;20635;-66
2021/06/15 12:56:21;;;;;;;4.53;2.43;;;23.90;99.90;;;;;;5007777;28;20681;-66
2021/06/15 12:58:49;;;;;;;3.57;2.10;;;24.10;99.90;;;;;;5024486;28;20657;-67
2021/06/15 13:01:25;;;;;;;3.10;2.10;;;24.20;99.90;;;;;;5009449;28;20663;-67